sensor_id;sensor_type;location;lat;lon;timestamp;temperature;humidity
8792;DHT22;4432;50.890;4.744;2022-12-10T00:01:46;0.10;99.90
8792;DHT22;4432;50.890;4.744;2022-12-10T00:04:13;0.00;99.90
8792;DHT22;4432;50.890;4.744;2022-12-10T00:06:39;0.00;99.90
8792;DHT22;4432;50.890;4.744;2022-12-10T00:09:09;0.10;99.90
8792;DHT22;4432;50.890;4.744;2022-12-10T00:11:37;0.10;99.90
8792;DHT22;4432;50.890;4.744;2022-12-10T00:14:03;0.10;99.90
8792;DHT22;4432;50.890;4.744;2022-12-10T00:16:29;0.10;99.90
8792;DHT22;4432;50.890;4.744;2022-12-10T00:18:56;0.10;99.90
8792;DHT22;4432;50.890;4.744;2022-12-10T00:21:34;0.10;99.90
8792;DHT22;4432;50.890;4.744;2022-12-10T00:24:00;0.10;99.90
8792;DHT22;4432;50.890;4.744;2022-12-10T00:26:31;0.10;99.90
8792;DHT22;4432;50.890;4.744;2022-12-10T00:28:59;0.00;99.90
8792;DHT22;4432;50.890;4.744;2022-12-10T00:31:28;0.00;99.90
8792;DHT22;4432;50.890;4.744;2022-12-10T00:33:56;-0.10;99.90
8792;DHT22;4432;50.890;4.744;2022-12-10T00:36:28;-0.10;99.90
8792;DHT22;4432;50.890;4.744;2022-12-10T00:38:54;-0.10;99.90
8792;DHT22;4432;50.890;4.744;2022-12-10T00:41:20;0.00;99.90
8792;DHT22;4432;50.890;4.744;2022-12-10T00:43:46;-0.10;99.90
8792;DHT22;4432;50.890;4.744;2022-12-10T00:46:14;-0.10;99.90
8792;DHT22;4432;50.890;4.744;2022-12-10T00:48:40;-0.10;99.90
8792;DHT22;4432;50.890;4.744;2022-12-10T00:51:13;-0.10;99.90
8792;DHT22;4432;50.890;4.744;2022-12-10T00:53:40;-0.10;99.90
8792;DHT22;4432;50.890;4.744;2022-12-10T00:56:08;-0.20;99.90
8792;DHT22;4432;50.890;4.744;2022-12-10T00:58:35;-0.20;99.90
8792;DHT22;4432;50.890;4.744;2022-12-10T01:01:13;-0.20;99.90
8792;DHT22;4432;50.890;4.744;2022-12-10T01:03:40;-0.10;99.90
8792;DHT22;4432;50.890;4.744;2022-12-10T01:06:16;-0.10;99.90
8792;DHT22;4432;50.890;4.744;2022-12-10T01:08:43;-0.10;99.90
8792;DHT22;4432;50.890;4.744;2022-12-10T01:11:11;-0.10;99.90
8792;DHT22;4432;50.890;4.744;2022-12-10T01:13:38;-0.10;99.90
8792;DHT22;4432;50.890;4.744;2022-12-10T01:16:06;-0.10;99.90
8792;DHT22;4432;50.890;4.744;2022-12-10T01:18:33;-0.10;99.90
8792;DHT22;4432;50.890;4.744;2022-12-10T01:21:08;0.00;99.90
8792;DHT22;4432;50.890;4.744;2022-12-10T01:23:35;-0.10;99.90
8792;DHT22;4432;50.890;4.744;2022-12-10T01:26:04;-0.10;99.90
8792;DHT22;4432;50.890;4.744;2022-12-10T01:28:31;-0.10;99.90
8792;DHT22;4432;50.890;4.744;2022-12-10T01:31:09;-0.10;99.90
8792;DHT22;4432;50.890;4.744;2022-12-10T01:33:36;-0.10;99.90
8792;DHT22;4432;50.890;4.744;2022-12-10T01:36:13;-0.10;99.90
8792;DHT22;4432;50.890;4.744;2022-12-10T01:38:40;-0.10;99.90
8792;DHT22;4432;50.890;4.744;2022-12-10T01:41:07;-0.10;99.90
8792;DHT22;4432;50.890;4.744;2022-12-10T01:44:56;-0.10;99.90
8792;DHT22;4432;50.890;4.744;2022-12-10T01:46:56;-0.20;99.90
8792;DHT22;4432;50.890;4.744;2022-12-10T01:49:33;-0.20;99.90
8792;DHT22;4432;50.890;4.744;2022-12-10T01:51:59;-0.30;99.90
8792;DHT22;4432;50.890;4.744;2022-12-10T01:54:28;-0.50;99.90
8792;DHT22;4432;50.890;4.744;2022-12-10T01:57:03;-0.60;99.90
8792;DHT22;4432;50.890;4.744;2022-12-10T01:59:30;-0.60;99.90
8792;DHT22;4432;50.890;4.744;2022-12-10T02:04:47;-0.70;99.90
8792;DHT22;4432;50.890;4.744;2022-12-10T02:13:01;-0.80;99.90
8792;DHT22;4432;50.890;4.744;2022-12-10T02:15:43;-0.80;99.90
8792;DHT22;4432;50.890;4.744;2022-12-10T02:18:21;-0.80;99.90
8792;DHT22;4432;50.890;4.744;2022-12-10T02:20:53;-0.70;99.90
8792;DHT22;4432;50.890;4.744;2022-12-10T02:23:26;-0.80;99.90
8792;DHT22;4432;50.890;4.744;2022-12-10T02:31:11;-0.60;99.90
8792;DHT22;4432;50.890;4.744;2022-12-10T02:33:43;-0.60;99.90
8792;DHT22;4432;50.890;4.744;2022-12-10T02:36:13;-0.60;99.90
8792;DHT22;4432;50.890;4.744;2022-12-10T02:38:40;-0.50;99.90
8792;DHT22;4432;50.890;4.744;2022-12-10T02:41:11;-0.40;99.90
8792;DHT22;4432;50.890;4.744;2022-12-10T02:43:39;-0.50;99.90
8792;DHT22;4432;50.890;4.744;2022-12-10T02:46:06;-0.50;99.90
8792;DHT22;4432;50.890;4.744;2022-12-10T02:48:32;-0.50;99.90
8792;DHT22;4432;50.890;4.744;2022-12-10T02:50:59;-0.60;99.90
8792;DHT22;4432;50.890;4.744;2022-12-10T02:53:25;-0.50;99.90
8792;DHT22;4432;50.890;4.744;2022-12-10T02:56:19;-0.70;99.90
8792;DHT22;4432;50.890;4.744;2022-12-10T03:04:18;-0.60;99.90
8792;DHT22;4432;50.890;4.744;2022-12-10T03:06:59;-0.60;99.90
8792;DHT22;4432;50.890;4.744;2022-12-10T03:09:53;-0.60;99.90
8792;DHT22;4432;50.890;4.744;2022-12-10T03:12:28;-0.60;99.90
8792;DHT22;4432;50.890;4.744;2022-12-10T03:14:58;-0.70;99.90
8792;DHT22;4432;50.890;4.744;2022-12-10T03:17:29;-0.70;99.90
8792;DHT22;4432;50.890;4.744;2022-12-10T03:19:59;-0.80;99.90
8792;DHT22;4432;50.890;4.744;2022-12-10T03:22:26;-0.70;99.90
8792;DHT22;4432;50.890;4.744;2022-12-10T03:24:53;-0.70;99.90
8792;DHT22;4432;50.890;4.744;2022-12-10T03:27:21;-0.70;99.90
8792;DHT22;4432;50.890;4.744;2022-12-10T03:29:50;-0.60;99.90
8792;DHT22;4432;50.890;4.744;2022-12-10T03:32:19;-0.60;99.90
8792;DHT22;4432;50.890;4.744;2022-12-10T03:34:46;-0.60;99.90
8792;DHT22;4432;50.890;4.744;2022-12-10T03:37:13;-0.50;99.90
8792;DHT22;4432;50.890;4.744;2022-12-10T03:39:40;-0.50;99.90
8792;DHT22;4432;50.890;4.744;2022-12-10T03:42:06;-0.50;99.90
8792;DHT22;4432;50.890;4.744;2022-12-10T03:44:35;-0.50;99.90
8792;DHT22;4432;50.890;4.744;2022-12-10T03:47:03;-0.50;99.90
8792;DHT22;4432;50.890;4.744;2022-12-10T03:49:29;-0.60;99.90
8792;DHT22;4432;50.890;4.744;2022-12-10T03:51:55;-0.50;99.90
8792;DHT22;4432;50.890;4.744;2022-12-10T03:54:21;-0.50;99.90
8792;DHT22;4432;50.890;4.744;2022-12-10T03:56:48;-0.60;99.90
8792;DHT22;4432;50.890;4.744;2022-12-10T03:59:14;-0.60;99.90
8792;DHT22;4432;50.890;4.744;2022-12-10T04:01:40;-0.60;99.90
8792;DHT22;4432;50.890;4.744;2022-12-10T04:04:07;-0.60;99.90
8792;DHT22;4432;50.890;4.744;2022-12-10T04:06:33;-0.60;99.90
8792;DHT22;4432;50.890;4.744;2022-12-10T04:08:59;-0.60;99.90
8792;DHT22;4432;50.890;4.744;2022-12-10T04:11:25;-0.50;99.90
8792;DHT22;4432;50.890;4.744;2022-12-10T04:13:51;-0.50;99.90
8792;DHT22;4432;50.890;4.744;2022-12-10T04:16:36;-0.50;99.90
8792;DHT22;4432;50.890;4.744;2022-12-10T04:19:08;-0.40;99.90
8792;DHT22;4432;50.890;4.744;2022-12-10T04:21:36;-0.40;99.90
8792;DHT22;4432;50.890;4.744;2022-12-10T04:24:23;-0.40;99.90
8792;DHT22;4432;50.890;4.744;2022-12-10T04:27:19;-0.40;99.90
8792;DHT22;4432;50.890;4.744;2022-12-10T04:29:45;-0.50;99.90
8792;DHT22;4432;50.890;4.744;2022-12-10T04:32:11;-0.40;99.90
8792;DHT22;4432;50.890;4.744;2022-12-10T04:34:37;-0.50;99.90
8792;DHT22;4432;50.890;4.744;2022-12-10T04:37:03;-0.40;99.90
8792;DHT22;4432;50.890;4.744;2022-12-10T04:39:29;-0.40;99.90
8792;DHT22;4432;50.890;4.744;2022-12-10T04:41:55;-0.40;99.90
8792;DHT22;4432;50.890;4.744;2022-12-10T04:44:22;-0.40;99.90
8792;DHT22;4432;50.890;4.744;2022-12-10T04:46:48;-0.40;99.90
8792;DHT22;4432;50.890;4.744;2022-12-10T04:49:14;-0.30;99.90
8792;DHT22;4432;50.890;4.744;2022-12-10T04:51:40;-0.30;99.90
8792;DHT22;4432;50.890;4.744;2022-12-10T04:54:07;-0.30;99.90
8792;DHT22;4432;50.890;4.744;2022-12-10T04:56:33;-0.40;99.90
8792;DHT22;4432;50.890;4.744;2022-12-10T04:59:00;-0.40;99.90
8792;DHT22;4432;50.890;4.744;2022-12-10T05:01:26;-0.40;99.90
8792;DHT22;4432;50.890;4.744;2022-12-10T05:03:53;-0.30;99.90
8792;DHT22;4432;50.890;4.744;2022-12-10T05:06:20;-0.40;99.90
8792;DHT22;4432;50.890;4.744;2022-12-10T05:08:46;-0.30;99.90
8792;DHT22;4432;50.890;4.744;2022-12-10T05:11:17;-0.30;99.90
8792;DHT22;4432;50.890;4.744;2022-12-10T05:13:44;-0.40;99.90
8792;DHT22;4432;50.890;4.744;2022-12-10T05:16:11;-0.40;99.90
8792;DHT22;4432;50.890;4.744;2022-12-10T05:18:38;-0.40;99.90
8792;DHT22;4432;50.890;4.744;2022-12-10T05:21:06;-0.40;99.90
8792;DHT22;4432;50.890;4.744;2022-12-10T05:23:35;-0.40;99.90
8792;DHT22;4432;50.890;4.744;2022-12-10T05:28:37;-0.40;99.90
8792;DHT22;4432;50.890;4.744;2022-12-10T05:31:04;-0.40;99.90
8792;DHT22;4432;50.890;4.744;2022-12-10T05:33:31;-0.50;99.90
8792;DHT22;4432;50.890;4.744;2022-12-10T05:36:02;-0.50;99.90
8792;DHT22;4432;50.890;4.744;2022-12-10T05:38:31;-0.60;99.90
8792;DHT22;4432;50.890;4.744;2022-12-10T05:41:05;-0.50;99.90
8792;DHT22;4432;50.890;4.744;2022-12-10T05:43:31;-0.50;99.90
8792;DHT22;4432;50.890;4.744;2022-12-10T05:46:02;-0.50;99.90
8792;DHT22;4432;50.890;4.744;2022-12-10T05:48:28;-0.60;99.90
8792;DHT22;4432;50.890;4.744;2022-12-10T05:50:54;-0.50;99.90
8792;DHT22;4432;50.890;4.744;2022-12-10T05:53:20;-0.70;99.90
8792;DHT22;4432;50.890;4.744;2022-12-10T05:55:46;-0.70;99.90
8792;DHT22;4432;50.890;4.744;2022-12-10T05:58:12;-0.60;99.90
8792;DHT22;4432;50.890;4.744;2022-12-10T06:00:41;-0.60;99.90
8792;DHT22;4432;50.890;4.744;2022-12-10T06:03:07;-0.60;99.90
8792;DHT22;4432;50.890;4.744;2022-12-10T06:05:40;-0.70;99.90
8792;DHT22;4432;50.890;4.744;2022-12-10T06:08:07;-0.60;99.90
8792;DHT22;4432;50.890;4.744;2022-12-10T06:10:36;-0.60;99.90
8792;DHT22;4432;50.890;4.744;2022-12-10T06:13:03;-0.60;99.90
8792;DHT22;4432;50.890;4.744;2022-12-10T06:15:30;-0.60;99.90
8792;DHT22;4432;50.890;4.744;2022-12-10T06:17:56;-0.50;99.90
8792;DHT22;4432;50.890;4.744;2022-12-10T06:20:23;-0.50;99.90
8792;DHT22;4432;50.890;4.744;2022-12-10T06:22:49;-0.60;99.90
8792;DHT22;4432;50.890;4.744;2022-12-10T06:25:15;-0.60;99.90
8792;DHT22;4432;50.890;4.744;2022-12-10T06:27:41;-0.60;99.90
8792;DHT22;4432;50.890;4.744;2022-12-10T06:30:07;-0.60;99.90
8792;DHT22;4432;50.890;4.744;2022-12-10T06:32:33;-0.60;99.90
8792;DHT22;4432;50.890;4.744;2022-12-10T06:34:59;-0.60;99.90
8792;DHT22;4432;50.890;4.744;2022-12-10T06:37:25;-0.60;99.90
8792;DHT22;4432;50.890;4.744;2022-12-10T06:39:51;-0.60;99.90
8792;DHT22;4432;50.890;4.744;2022-12-10T06:42:18;-0.60;99.90
8792;DHT22;4432;50.890;4.744;2022-12-10T06:44:45;-0.60;99.90
8792;DHT22;4432;50.890;4.744;2022-12-10T06:47:12;-0.60;99.90
8792;DHT22;4432;50.890;4.744;2022-12-10T06:49:38;-0.60;99.90
8792;DHT22;4432;50.890;4.744;2022-12-10T06:52:03;-0.70;99.90
8792;DHT22;4432;50.890;4.744;2022-12-10T06:54:30;-0.80;99.90
8792;DHT22;4432;50.890;4.744;2022-12-10T06:56:56;-0.70;99.90
8792;DHT22;4432;50.890;4.744;2022-12-10T06:59:22;-0.70;99.90
8792;DHT22;4432;50.890;4.744;2022-12-10T07:01:48;-0.70;99.90
8792;DHT22;4432;50.890;4.744;2022-12-10T07:04:14;-0.70;99.90
8792;DHT22;4432;50.890;4.744;2022-12-10T07:06:39;-0.80;99.90
8792;DHT22;4432;50.890;4.744;2022-12-10T07:09:05;-0.80;99.90
8792;DHT22;4432;50.890;4.744;2022-12-10T07:11:31;-0.80;99.90
8792;DHT22;4432;50.890;4.744;2022-12-10T07:13:58;-0.70;99.90
8792;DHT22;4432;50.890;4.744;2022-12-10T07:16:27;-0.70;99.90
8792;DHT22;4432;50.890;4.744;2022-12-10T07:18:55;-0.60;99.90
8792;DHT22;4432;50.890;4.744;2022-12-10T07:21:22;-0.70;99.90
8792;DHT22;4432;50.890;4.744;2022-12-10T07:23:50;-0.70;99.90
8792;DHT22;4432;50.890;4.744;2022-12-10T07:26:16;-0.60;99.90
8792;DHT22;4432;50.890;4.744;2022-12-10T07:28:42;-0.60;99.90
8792;DHT22;4432;50.890;4.744;2022-12-10T07:31:09;-0.60;99.90
8792;DHT22;4432;50.890;4.744;2022-12-10T07:33:35;-0.60;99.90
8792;DHT22;4432;50.890;4.744;2022-12-10T07:36:12;-0.60;99.90
8792;DHT22;4432;50.890;4.744;2022-12-10T07:38:38;-0.60;99.90
8792;DHT22;4432;50.890;4.744;2022-12-10T07:41:06;-0.60;99.90
8792;DHT22;4432;50.890;4.744;2022-12-10T07:43:38;-0.50;99.90
8792;DHT22;4432;50.890;4.744;2022-12-10T07:46:17;-0.50;99.90
8792;DHT22;4432;50.890;4.744;2022-12-10T07:48:44;-0.50;99.90
8792;DHT22;4432;50.890;4.744;2022-12-10T07:51:11;-0.50;99.90
8792;DHT22;4432;50.890;4.744;2022-12-10T07:53:38;-0.50;99.90
8792;DHT22;4432;50.890;4.744;2022-12-10T07:56:04;-0.40;99.90
8792;DHT22;4432;50.890;4.744;2022-12-10T07:58:30;-0.40;99.90
8792;DHT22;4432;50.890;4.744;2022-12-10T08:00:56;-0.40;99.90
8792;DHT22;4432;50.890;4.744;2022-12-10T08:03:22;-0.40;99.90
8792;DHT22;4432;50.890;4.744;2022-12-10T08:06:03;-0.50;99.90
8792;DHT22;4432;50.890;4.744;2022-12-10T08:08:29;-0.60;99.90
8792;DHT22;4432;50.890;4.744;2022-12-10T08:10:55;-0.50;99.90
8792;DHT22;4432;50.890;4.744;2022-12-10T08:13:24;-0.40;99.90
8792;DHT22;4432;50.890;4.744;2022-12-10T08:15:50;-0.30;99.90
8792;DHT22;4432;50.890;4.744;2022-12-10T08:18:16;-0.30;99.90
8792;DHT22;4432;50.890;4.744;2022-12-10T08:20:41;-0.30;99.90
8792;DHT22;4432;50.890;4.744;2022-12-10T08:23:07;-0.40;99.90
8792;DHT22;4432;50.890;4.744;2022-12-10T08:25:33;-0.40;99.90
8792;DHT22;4432;50.890;4.744;2022-12-10T08:28:00;-0.40;99.90
8792;DHT22;4432;50.890;4.744;2022-12-10T08:30:28;-0.50;99.90
8792;DHT22;4432;50.890;4.744;2022-12-10T08:32:54;-0.60;99.90
8792;DHT22;4432;50.890;4.744;2022-12-10T08:35:20;-0.50;99.90
8792;DHT22;4432;50.890;4.744;2022-12-10T08:37:46;-0.40;99.90
8792;DHT22;4432;50.890;4.744;2022-12-10T08:40:12;-0.50;99.90
8792;DHT22;4432;50.890;4.744;2022-12-10T08:42:38;-0.40;99.90
8792;DHT22;4432;50.890;4.744;2022-12-10T08:45:04;-0.40;99.90
8792;DHT22;4432;50.890;4.744;2022-12-10T08:47:30;-0.40;99.90
8792;DHT22;4432;50.890;4.744;2022-12-10T08:49:56;-0.30;99.90
8792;DHT22;4432;50.890;4.744;2022-12-10T08:52:22;-0.30;99.90
8792;DHT22;4432;50.890;4.744;2022-12-10T08:54:48;-0.20;99.90
8792;DHT22;4432;50.890;4.744;2022-12-10T08:57:14;-0.10;99.90
8792;DHT22;4432;50.890;4.744;2022-12-10T08:59:40;-0.20;99.90
8792;DHT22;4432;50.890;4.744;2022-12-10T09:02:07;-0.40;99.90
8792;DHT22;4432;50.890;4.744;2022-12-10T09:04:33;-0.60;99.90
8792;DHT22;4432;50.890;4.744;2022-12-10T09:06:59;-0.50;99.90
8792;DHT22;4432;50.890;4.744;2022-12-10T09:09:27;-0.40;99.90
8792;DHT22;4432;50.890;4.744;2022-12-10T09:11:52;-0.30;99.90
8792;DHT22;4432;50.890;4.744;2022-12-10T09:14:18;-0.20;99.90
8792;DHT22;4432;50.890;4.744;2022-12-10T09:16:44;-0.30;99.90
8792;DHT22;4432;50.890;4.744;2022-12-10T09:19:10;-0.40;99.90
8792;DHT22;4432;50.890;4.744;2022-12-10T09:21:36;-0.40;99.90
8792;DHT22;4432;50.890;4.744;2022-12-10T09:24:02;-0.40;99.90
8792;DHT22;4432;50.890;4.744;2022-12-10T09:26:28;-0.20;99.90
8792;DHT22;4432;50.890;4.744;2022-12-10T09:28:53;-0.10;99.90
8792;DHT22;4432;50.890;4.744;2022-12-10T09:31:20;0.00;99.90
8792;DHT22;4432;50.890;4.744;2022-12-10T09:33:48;0.00;99.90
8792;DHT22;4432;50.890;4.744;2022-12-10T09:36:15;0.10;99.90
8792;DHT22;4432;50.890;4.744;2022-12-10T09:38:43;0.10;99.90
8792;DHT22;4432;50.890;4.744;2022-12-10T09:44:15;-0.10;99.90
8792;DHT22;4432;50.890;4.744;2022-12-10T09:46:54;-0.20;99.90
8792;DHT22;4432;50.890;4.744;2022-12-10T09:49:42;-0.20;99.90
8792;DHT22;4432;50.890;4.744;2022-12-10T09:52:13;-0.20;99.90
8792;DHT22;4432;50.890;4.744;2022-12-10T09:59:49;-0.20;99.90
8792;DHT22;4432;50.890;4.744;2022-12-10T10:04:41;-0.30;99.90
8792;DHT22;4432;50.890;4.744;2022-12-10T10:07:30;-0.20;99.90
8792;DHT22;4432;50.890;4.744;2022-12-10T10:10:00;-0.20;99.90
8792;DHT22;4432;50.890;4.744;2022-12-10T10:12:28;-0.20;99.90
8792;DHT22;4432;50.890;4.744;2022-12-10T10:14:57;-0.30;99.90
8792;DHT22;4432;50.890;4.744;2022-12-10T10:17:29;-0.40;99.90
8792;DHT22;4432;50.890;4.744;2022-12-10T10:19:57;-0.20;99.90
8792;DHT22;4432;50.890;4.744;2022-12-10T10:22:23;-0.20;99.90
8792;DHT22;4432;50.890;4.744;2022-12-10T10:24:49;-0.10;99.90
8792;DHT22;4432;50.890;4.744;2022-12-10T10:27:17;0.00;99.90
8792;DHT22;4432;50.890;4.744;2022-12-10T10:29:46;0.10;99.90
8792;DHT22;4432;50.890;4.744;2022-12-10T10:32:16;0.20;99.90
8792;DHT22;4432;50.890;4.744;2022-12-10T10:34:44;0.30;99.90
8792;DHT22;4432;50.890;4.744;2022-12-10T10:37:21;0.40;99.90
8792;DHT22;4432;50.890;4.744;2022-12-10T10:39:55;0.50;99.90
8792;DHT22;4432;50.890;4.744;2022-12-10T10:45:30;0.70;99.90
8792;DHT22;4432;50.890;4.744;2022-12-10T10:48:17;0.40;99.90
8792;DHT22;4432;50.890;4.744;2022-12-10T10:50:53;0.60;99.90
8792;DHT22;4432;50.890;4.744;2022-12-10T10:53:40;0.60;99.90
8792;DHT22;4432;50.890;4.744;2022-12-10T10:56:45;0.70;99.90
8792;DHT22;4432;50.890;4.744;2022-12-10T11:01:55;0.70;99.90
8792;DHT22;4432;50.890;4.744;2022-12-10T11:04:55;0.40;99.90
8792;DHT22;4432;50.890;4.744;2022-12-10T11:07:36;0.60;99.90
8792;DHT22;4432;50.890;4.744;2022-12-10T11:10:15;0.60;99.90
8792;DHT22;4432;50.890;4.744;2022-12-10T11:12:42;0.70;99.90
8792;DHT22;4432;50.890;4.744;2022-12-10T11:17:49;0.70;99.90
8792;DHT22;4432;50.890;4.744;2022-12-10T11:20:21;0.80;99.90
8792;DHT22;4432;50.890;4.744;2022-12-10T11:22:59;1.00;99.90
8792;DHT22;4432;50.890;4.744;2022-12-10T11:25:42;0.80;99.90
8792;DHT22;4432;50.890;4.744;2022-12-10T11:30:49;1.00;99.90
8792;DHT22;4432;50.890;4.744;2022-12-10T11:33:30;0.80;99.90
8792;DHT22;4432;50.890;4.744;2022-12-10T11:36:09;0.90;99.90
8792;DHT22;4432;50.890;4.744;2022-12-10T11:41:37;0.90;99.90
8792;DHT22;4432;50.890;4.744;2022-12-10T11:44:32;1.00;99.90
8792;DHT22;4432;50.890;4.744;2022-12-10T11:47:21;1.00;99.90
8792;DHT22;4432;50.890;4.744;2022-12-10T11:55:22;1.10;99.90
8792;DHT22;4432;50.890;4.744;2022-12-10T11:58:12;1.10;99.90
8792;DHT22;4432;50.890;4.744;2022-12-10T12:12:03;1.30;99.90
8792;DHT22;4432;50.890;4.744;2022-12-10T12:14:36;1.30;99.90
8792;DHT22;4432;50.890;4.744;2022-12-10T12:17:34;1.30;99.90
8792;DHT22;4432;50.890;4.744;2022-12-10T12:20:32;1.30;99.90
8792;DHT22;4432;50.890;4.744;2022-12-10T12:23:19;1.40;99.90
8792;DHT22;4432;50.890;4.744;2022-12-10T12:25:54;1.20;99.90
8792;DHT22;4432;50.890;4.744;2022-12-10T12:28:26;1.40;99.90
8792;DHT22;4432;50.890;4.744;2022-12-10T12:31:05;1.50;99.90
8792;DHT22;4432;50.890;4.744;2022-12-10T12:36:11;1.50;99.90
8792;DHT22;4432;50.890;4.744;2022-12-10T12:38:49;1.50;99.90
8792;DHT22;4432;50.890;4.744;2022-12-10T12:46:47;1.40;99.90
8792;DHT22;4432;50.890;4.744;2022-12-10T12:49:27;1.60;99.90
8792;DHT22;4432;50.890;4.744;2022-12-10T12:54:22;1.40;99.90
8792;DHT22;4432;50.890;4.744;2022-12-10T12:59:58;1.40;99.90
8792;DHT22;4432;50.890;4.744;2022-12-10T13:02:52;1.50;99.90
8792;DHT22;4432;50.890;4.744;2022-12-10T13:05:37;1.50;99.90
8792;DHT22;4432;50.890;4.744;2022-12-10T13:10:52;1.50;99.90
8792;DHT22;4432;50.890;4.744;2022-12-10T13:15:53;1.60;99.90
8792;DHT22;4432;50.890;4.744;2022-12-10T13:18:23;1.60;99.90
8792;DHT22;4432;50.890;4.744;2022-12-10T13:21:30;1.60;99.90
8792;DHT22;4432;50.890;4.744;2022-12-10T13:24:11;1.60;99.90
8792;DHT22;4432;50.890;4.744;2022-12-10T13:26:41;1.50;99.90
8792;DHT22;4432;50.890;4.744;2022-12-10T13:29:26;1.60;99.90
8792;DHT22;4432;50.890;4.744;2022-12-10T13:34:40;1.50;99.90
8792;DHT22;4432;50.890;4.744;2022-12-10T13:39:53;1.40;99.90
8792;DHT22;4432;50.890;4.744;2022-12-10T13:42:29;1.40;99.90
8792;DHT22;4432;50.890;4.744;2022-12-10T13:47:51;1.60;99.90
8792;DHT22;4432;50.890;4.744;2022-12-10T13:50:18;1.40;99.90
8792;DHT22;4432;50.890;4.744;2022-12-10T13:55:51;1.60;99.90
8792;DHT22;4432;50.890;4.744;2022-12-10T14:01:20;1.70;99.90
8792;DHT22;4432;50.890;4.744;2022-12-10T14:06:39;1.70;99.90
8792;DHT22;4432;50.890;4.744;2022-12-10T14:09:18;1.80;99.90
8792;DHT22;4432;50.890;4.744;2022-12-10T14:11:57;1.90;99.90
8792;DHT22;4432;50.890;4.744;2022-12-10T14:14:34;1.60;99.90
8792;DHT22;4432;50.890;4.744;2022-12-10T14:17:14;1.60;99.90
8792;DHT22;4432;50.890;4.744;2022-12-10T14:19:46;1.60;99.90
8792;DHT22;4432;50.890;4.744;2022-12-10T14:22:18;1.60;99.90
8792;DHT22;4432;50.890;4.744;2022-12-10T14:24:48;1.70;99.90
8792;DHT22;4432;50.890;4.744;2022-12-10T14:27:15;1.40;99.90
8792;DHT22;4432;50.890;4.744;2022-12-10T14:29:49;1.50;99.90
8792;DHT22;4432;50.890;4.744;2022-12-10T14:32:25;1.50;99.90
8792;DHT22;4432;50.890;4.744;2022-12-10T14:34:57;1.40;99.90
8792;DHT22;4432;50.890;4.744;2022-12-10T14:37:29;1.50;99.90
8792;DHT22;4432;50.890;4.744;2022-12-10T14:39:56;1.50;99.90
8792;DHT22;4432;50.890;4.744;2022-12-10T14:42:22;1.40;99.90
8792;DHT22;4432;50.890;4.744;2022-12-10T14:44:58;1.50;99.90
8792;DHT22;4432;50.890;4.744;2022-12-10T14:47:24;1.40;99.90
8792;DHT22;4432;50.890;4.744;2022-12-10T14:49:53;1.40;99.90
8792;DHT22;4432;50.890;4.744;2022-12-10T14:52:30;1.40;99.90
8792;DHT22;4432;50.890;4.744;2022-12-10T14:54:58;1.40;99.90
8792;DHT22;4432;50.890;4.744;2022-12-10T14:57:31;1.40;99.90
8792;DHT22;4432;50.890;4.744;2022-12-10T15:00:20;1.40;99.90
8792;DHT22;4432;50.890;4.744;2022-12-10T15:03:17;1.40;99.90
8792;DHT22;4432;50.890;4.744;2022-12-10T15:05:55;1.40;99.90
8792;DHT22;4432;50.890;4.744;2022-12-10T15:08:22;1.40;99.90
8792;DHT22;4432;50.890;4.744;2022-12-10T15:10:52;1.40;99.90
8792;DHT22;4432;50.890;4.744;2022-12-10T15:13:41;1.40;99.90
8792;DHT22;4432;50.890;4.744;2022-12-10T15:16:39;1.30;99.90
8792;DHT22;4432;50.890;4.744;2022-12-10T15:19:20;1.30;99.90
8792;DHT22;4432;50.890;4.744;2022-12-10T15:21:47;1.30;99.90
8792;DHT22;4432;50.890;4.744;2022-12-10T15:24:25;1.30;99.90
8792;DHT22;4432;50.890;4.744;2022-12-10T15:26:52;1.40;99.90
8792;DHT22;4432;50.890;4.744;2022-12-10T15:31:57;1.40;99.90
8792;DHT22;4432;50.890;4.744;2022-12-10T15:34:26;1.40;99.90
8792;DHT22;4432;50.890;4.744;2022-12-10T15:36:56;1.30;99.90
8792;DHT22;4432;50.890;4.744;2022-12-10T15:39:29;1.30;99.90
8792;DHT22;4432;50.890;4.744;2022-12-10T15:44:27;1.30;99.90
8792;DHT22;4432;50.890;4.744;2022-12-10T15:47:01;1.40;99.90
8792;DHT22;4432;50.890;4.744;2022-12-10T15:49:29;1.30;99.90
8792;DHT22;4432;50.890;4.744;2022-12-10T15:51:56;1.30;99.90
8792;DHT22;4432;50.890;4.744;2022-12-10T15:56:51;1.30;99.90
8792;DHT22;4432;50.890;4.744;2022-12-10T15:59:17;1.30;99.90
8792;DHT22;4432;50.890;4.744;2022-12-10T16:01:42;1.30;99.90
8792;DHT22;4432;50.890;4.744;2022-12-10T16:04:09;1.30;99.90
8792;DHT22;4432;50.890;4.744;2022-12-10T16:06:35;1.30;99.90
8792;DHT22;4432;50.890;4.744;2022-12-10T16:09:00;1.30;99.90
8792;DHT22;4432;50.890;4.744;2022-12-10T16:11:26;1.30;99.90
8792;DHT22;4432;50.890;4.744;2022-12-10T16:13:55;1.30;99.90
8792;DHT22;4432;50.890;4.744;2022-12-10T16:16:26;1.30;99.90
8792;DHT22;4432;50.890;4.744;2022-12-10T16:18:52;1.40;99.90
8792;DHT22;4432;50.890;4.744;2022-12-10T16:21:17;1.30;99.90
8792;DHT22;4432;50.890;4.744;2022-12-10T16:23:43;1.40;99.90
8792;DHT22;4432;50.890;4.744;2022-12-10T16:26:15;1.30;99.90
8792;DHT22;4432;50.890;4.744;2022-12-10T16:28:42;1.30;99.90
8792;DHT22;4432;50.890;4.744;2022-12-10T16:31:12;1.40;99.90
8792;DHT22;4432;50.890;4.744;2022-12-10T16:33:39;1.40;99.90
8792;DHT22;4432;50.890;4.744;2022-12-10T16:36:05;1.50;99.90
8792;DHT22;4432;50.890;4.744;2022-12-10T16:38:31;1.50;99.90
8792;DHT22;4432;50.890;4.744;2022-12-10T16:41:01;1.50;99.90
8792;DHT22;4432;50.890;4.744;2022-12-10T16:43:29;1.50;99.90
8792;DHT22;4432;50.890;4.744;2022-12-10T16:45:56;1.50;99.90
8792;DHT22;4432;50.890;4.744;2022-12-10T16:48:22;1.50;99.90
8792;DHT22;4432;50.890;4.744;2022-12-10T16:50:50;1.40;99.90
8792;DHT22;4432;50.890;4.744;2022-12-10T16:53:23;1.40;99.90
8792;DHT22;4432;50.890;4.744;2022-12-10T16:55:51;1.50;99.90
8792;DHT22;4432;50.890;4.744;2022-12-10T16:58:17;1.50;99.90
8792;DHT22;4432;50.890;4.744;2022-12-10T17:00:49;1.50;99.90
8792;DHT22;4432;50.890;4.744;2022-12-10T17:03:23;1.40;99.90
8792;DHT22;4432;50.890;4.744;2022-12-10T17:05:55;1.50;99.90
8792;DHT22;4432;50.890;4.744;2022-12-10T17:08:22;1.50;99.90
8792;DHT22;4432;50.890;4.744;2022-12-10T17:10:48;1.40;99.90
8792;DHT22;4432;50.890;4.744;2022-12-10T17:13:34;1.40;99.90
8792;DHT22;4432;50.890;4.744;2022-12-10T17:16:00;1.40;99.90
8792;DHT22;4432;50.890;4.744;2022-12-10T17:18:27;1.40;99.90
8792;DHT22;4432;50.890;4.744;2022-12-10T17:20:53;1.30;99.90
8792;DHT22;4432;50.890;4.744;2022-12-10T17:23:19;1.40;99.90
8792;DHT22;4432;50.890;4.744;2022-12-10T17:25:47;1.40;99.90
8792;DHT22;4432;50.890;4.744;2022-12-10T17:28:21;1.40;99.90
8792;DHT22;4432;50.890;4.744;2022-12-10T17:30:48;1.40;99.90
8792;DHT22;4432;50.890;4.744;2022-12-10T17:33:20;1.30;99.90
8792;DHT22;4432;50.890;4.744;2022-12-10T17:35:47;1.20;99.90
8792;DHT22;4432;50.890;4.744;2022-12-10T17:38:20;1.20;99.90
8792;DHT22;4432;50.890;4.744;2022-12-10T17:40:46;1.10;99.90
8792;DHT22;4432;50.890;4.744;2022-12-10T17:43:12;1.10;99.90
8792;DHT22;4432;50.890;4.744;2022-12-10T17:45:39;1.20;99.90
8792;DHT22;4432;50.890;4.744;2022-12-10T17:48:05;1.10;99.90
8792;DHT22;4432;50.890;4.744;2022-12-10T17:50:37;1.10;99.90
8792;DHT22;4432;50.890;4.744;2022-12-10T17:53:04;1.10;99.90
8792;DHT22;4432;50.890;4.744;2022-12-10T17:55:31;1.10;99.90
8792;DHT22;4432;50.890;4.744;2022-12-10T17:57:57;1.10;99.90
8792;DHT22;4432;50.890;4.744;2022-12-10T18:00:27;1.10;99.90
8792;DHT22;4432;50.890;4.744;2022-12-10T18:02:53;1.20;99.90
8792;DHT22;4432;50.890;4.744;2022-12-10T18:05:19;1.20;99.90
8792;DHT22;4432;50.890;4.744;2022-12-10T18:07:45;1.20;99.90
8792;DHT22;4432;50.890;4.744;2022-12-10T18:10:23;1.20;99.90
8792;DHT22;4432;50.890;4.744;2022-12-10T18:12:49;1.20;99.90
8792;DHT22;4432;50.890;4.744;2022-12-10T18:15:21;1.20;99.90
8792;DHT22;4432;50.890;4.744;2022-12-10T18:17:47;1.20;99.90